sensor_id;sensor_type;location;lat;lon;timestamp;P1;durP1;ratioP1;P2;durP2;ratioP2
39924;SDS011;25592;49.986;11.618;2023-05-14T00:01:59;4.05;;;2.78;;
39924;SDS011;25592;49.986;11.618;2023-05-14T00:04:44;5.63;;;3.28;;
39924;SDS011;25592;49.986;11.618;2023-05-14T00:07:29;4.95;;;3.00;;
39924;SDS011;25592;49.986;11.618;2023-05-14T00:10:15;5.93;;;3.67;;
39924;SDS011;25592;49.986;11.618;2023-05-14T00:13:02;5.72;;;3.50;;
39924;SDS011;25592;49.986;11.618;2023-05-14T00:15:48;5.20;;;3.38;;
39924;SDS011;25592;49.986;11.618;2023-05-14T00:18:33;6.20;;;3.72;;
39924;SDS011;25592;49.986;11.618;2023-05-14T00:21:19;4.90;;;3.00;;
39924;SDS011;25592;49.986;11.618;2023-05-14T00:24:04;6.90;;;3.22;;
39924;SDS011;25592;49.986;11.618;2023-05-14T00:26:50;5.72;;;3.05;;
39924;SDS011;25592;49.986;11.618;2023-05-14T00:29:35;5.80;;;2.80;;
39924;SDS011;25592;49.986;11.618;2023-05-14T00:32:20;5.55;;;3.10;;
39924;SDS011;25592;49.986;11.618;2023-05-14T00:35:05;5.95;;;3.53;;
39924;SDS011;25592;49.986;11.618;2023-05-14T00:37:51;7.85;;;3.45;;
39924;SDS011;25592;49.986;11.618;2023-05-14T00:40:36;8.88;;;3.42;;
39924;SDS011;25592;49.986;11.618;2023-05-14T00:43:22;6.05;;;3.53;;
39924;SDS011;25592;49.986;11.618;2023-05-14T00:46:07;5.72;;;3.55;;
39924;SDS011;25592;49.986;11.618;2023-05-14T00:48:53;5.32;;;3.13;;
39924;SDS011;25592;49.986;11.618;2023-05-14T00:51:39;5.18;;;3.58;;
39924;SDS011;25592;49.986;11.618;2023-05-14T00:54:25;5.30;;;3.20;;
39924;SDS011;25592;49.986;11.618;2023-05-14T00:57:11;6.00;;;3.25;;
39924;SDS011;25592;49.986;11.618;2023-05-14T00:59:57;7.22;;;3.78;;
39924;SDS011;25592;49.986;11.618;2023-05-14T01:02:43;5.43;;;3.47;;
39924;SDS011;25592;49.986;11.618;2023-05-14T01:05:28;5.45;;;3.15;;
39924;SDS011;25592;49.986;11.618;2023-05-14T01:08:25;5.35;;;2.67;;
39924;SDS011;25592;49.986;11.618;2023-05-14T01:11:59;5.93;;;2.45;;
39924;SDS011;25592;49.986;11.618;2023-05-14T01:17:20;5.57;;;3.75;;
39924;SDS011;25592;49.986;11.618;2023-05-14T01:20:06;4.70;;;2.67;;
39924;SDS011;25592;49.986;11.618;2023-05-14T01:22:53;7.07;;;3.28;;
39924;SDS011;25592;49.986;11.618;2023-05-14T01:25:38;5.63;;;3.10;;
39924;SDS011;25592;49.986;11.618;2023-05-14T01:28:27;4.45;;;3.00;;
39924;SDS011;25592;49.986;11.618;2023-05-14T01:31:17;4.68;;;2.95;;
39924;SDS011;25592;49.986;11.618;2023-05-14T01:34:03;6.97;;;3.20;;
39924;SDS011;25592;49.986;11.618;2023-05-14T01:36:50;5.82;;;2.78;;
39924;SDS011;25592;49.986;11.618;2023-05-14T01:39:36;5.30;;;3.22;;
39924;SDS011;25592;49.986;11.618;2023-05-14T01:42:22;4.82;;;3.08;;
39924;SDS011;25592;49.986;11.618;2023-05-14T01:45:08;5.90;;;3.33;;
39924;SDS011;25592;49.986;11.618;2023-05-14T01:47:54;5.30;;;3.05;;
39924;SDS011;25592;49.986;11.618;2023-05-14T01:50:40;5.03;;;2.80;;
39924;SDS011;25592;49.986;11.618;2023-05-14T01:53:25;6.47;;;3.45;;
39924;SDS011;25592;49.986;11.618;2023-05-14T01:56:11;6.18;;;3.38;;
39924;SDS011;25592;49.986;11.618;2023-05-14T01:58:56;5.75;;;3.40;;
39924;SDS011;25592;49.986;11.618;2023-05-14T02:01:42;5.70;;;3.75;;
39924;SDS011;25592;49.986;11.618;2023-05-14T02:04:27;6.28;;;3.17;;
39924;SDS011;25592;49.986;11.618;2023-05-14T02:07:12;6.28;;;2.88;;
39924;SDS011;25592;49.986;11.618;2023-05-14T02:09:58;5.90;;;2.88;;
39924;SDS011;25592;49.986;11.618;2023-05-14T02:12:43;5.07;;;3.30;;
39924;SDS011;25592;49.986;11.618;2023-05-14T02:15:28;6.35;;;3.55;;
39924;SDS011;25592;49.986;11.618;2023-05-14T02:18:14;5.95;;;3.25;;
39924;SDS011;25592;49.986;11.618;2023-05-14T02:20:59;4.82;;;3.35;;
39924;SDS011;25592;49.986;11.618;2023-05-14T02:23:45;6.40;;;3.05;;
39924;SDS011;25592;49.986;11.618;2023-05-14T02:26:32;7.40;;;3.72;;
39924;SDS011;25592;49.986;11.618;2023-05-14T02:29:17;6.22;;;3.35;;
39924;SDS011;25592;49.986;11.618;2023-05-14T02:32:03;6.70;;;3.13;;
39924;SDS011;25592;49.986;11.618;2023-05-14T02:34:48;5.35;;;2.97;;
39924;SDS011;25592;49.986;11.618;2023-05-14T02:37:33;6.30;;;3.13;;
39924;SDS011;25592;49.986;11.618;2023-05-14T02:40:19;4.82;;;2.90;;
39924;SDS011;25592;49.986;11.618;2023-05-14T02:43:04;6.93;;;3.30;;
39924;SDS011;25592;49.986;11.618;2023-05-14T02:45:50;7.03;;;3.38;;
39924;SDS011;25592;49.986;11.618;2023-05-14T02:48:35;7.47;;;3.65;;
39924;SDS011;25592;49.986;11.618;2023-05-14T02:51:20;4.95;;;3.05;;
39924;SDS011;25592;49.986;11.618;2023-05-14T02:54:06;5.03;;;2.90;;
39924;SDS011;25592;49.986;11.618;2023-05-14T02:56:52;5.32;;;3.78;;
39924;SDS011;25592;49.986;11.618;2023-05-14T02:59:37;6.20;;;3.47;;
39924;SDS011;25592;49.986;11.618;2023-05-14T03:02:23;5.80;;;3.67;;
39924;SDS011;25592;49.986;11.618;2023-05-14T03:05:09;5.97;;;3.38;;
39924;SDS011;25592;49.986;11.618;2023-05-14T03:07:54;6.50;;;3.38;;
39924;SDS011;25592;49.986;11.618;2023-05-14T03:10:39;9.27;;;3.88;;
39924;SDS011;25592;49.986;11.618;2023-05-14T03:13:25;6.00;;;3.42;;
39924;SDS011;25592;49.986;11.618;2023-05-14T03:16:10;6.05;;;3.30;;
39924;SDS011;25592;49.986;11.618;2023-05-14T03:18:55;4.97;;;3.13;;
39924;SDS011;25592;49.986;11.618;2023-05-14T03:21:41;7.28;;;3.65;;
39924;SDS011;25592;49.986;11.618;2023-05-14T03:24:26;5.05;;;3.55;;
39924;SDS011;25592;49.986;11.618;2023-05-14T03:27:12;5.00;;;3.50;;
39924;SDS011;25592;49.986;11.618;2023-05-14T03:29:57;5.53;;;3.17;;
39924;SDS011;25592;49.986;11.618;2023-05-14T03:32:43;5.55;;;3.20;;
39924;SDS011;25592;49.986;11.618;2023-05-14T03:35:29;5.82;;;3.45;;
39924;SDS011;25592;49.986;11.618;2023-05-14T03:38:14;5.30;;;3.70;;
39924;SDS011;25592;49.986;11.618;2023-05-14T03:40:59;7.60;;;4.13;;
39924;SDS011;25592;49.986;11.618;2023-05-14T03:43:45;5.45;;;3.05;;
39924;SDS011;25592;49.986;11.618;2023-05-14T03:46:30;5.45;;;3.35;;
39924;SDS011;25592;49.986;11.618;2023-05-14T03:49:16;5.82;;;3.70;;
39924;SDS011;25592;49.986;11.618;2023-05-14T03:52:02;5.95;;;3.88;;
39924;SDS011;25592;49.986;11.618;2023-05-14T03:54:47;5.88;;;3.88;;
39924;SDS011;25592;49.986;11.618;2023-05-14T03:57:33;6.80;;;4.28;;
39924;SDS011;25592;49.986;11.618;2023-05-14T04:00:18;7.20;;;3.95;;
39924;SDS011;25592;49.986;11.618;2023-05-14T04:03:04;6.68;;;4.38;;
39924;SDS011;25592;49.986;11.618;2023-05-14T04:05:50;7.68;;;4.50;;
39924;SDS011;25592;49.986;11.618;2023-05-14T04:08:35;5.88;;;4.10;;
39924;SDS011;25592;49.986;11.618;2023-05-14T04:11:20;5.88;;;4.20;;
39924;SDS011;25592;49.986;11.618;2023-05-14T04:14:06;5.45;;;3.70;;
39924;SDS011;25592;49.986;11.618;2023-05-14T04:16:51;6.85;;;4.25;;
39924;SDS011;25592;49.986;11.618;2023-05-14T04:19:37;6.20;;;3.90;;
39924;SDS011;25592;49.986;11.618;2023-05-14T04:22:23;8.77;;;4.35;;
39924;SDS011;25592;49.986;11.618;2023-05-14T04:25:08;7.55;;;4.78;;
39924;SDS011;25592;49.986;11.618;2023-05-14T04:27:53;9.20;;;4.75;;
39924;SDS011;25592;49.986;11.618;2023-05-14T04:30:39;7.55;;;4.68;;
39924;SDS011;25592;49.986;11.618;2023-05-14T04:33:24;7.35;;;4.72;;
39924;SDS011;25592;49.986;11.618;2023-05-14T04:36:09;8.90;;;5.13;;
39924;SDS011;25592;49.986;11.618;2023-05-14T04:38:55;7.53;;;4.93;;
39924;SDS011;25592;49.986;11.618;2023-05-14T04:41:40;8.18;;;4.35;;
39924;SDS011;25592;49.986;11.618;2023-05-14T04:44:26;6.13;;;3.83;;
39924;SDS011;25592;49.986;11.618;2023-05-14T04:47:11;8.43;;;4.97;;
39924;SDS011;25592;49.986;11.618;2023-05-14T04:49:57;9.65;;;4.95;;
39924;SDS011;25592;49.986;11.618;2023-05-14T04:52:42;9.48;;;4.88;;
39924;SDS011;25592;49.986;11.618;2023-05-14T04:55:28;7.93;;;5.03;;
39924;SDS011;25592;49.986;11.618;2023-05-14T04:58:13;9.25;;;5.32;;
39924;SDS011;25592;49.986;11.618;2023-05-14T05:00:58;12.77;;;5.07;;
39924;SDS011;25592;49.986;11.618;2023-05-14T05:03:45;9.52;;;5.30;;
39924;SDS011;25592;49.986;11.618;2023-05-14T05:06:30;8.93;;;5.43;;
39924;SDS011;25592;49.986;11.618;2023-05-14T05:09:19;9.43;;;5.22;;
39924;SDS011;25592;49.986;11.618;2023-05-14T05:12:04;9.10;;;5.25;;
39924;SDS011;25592;49.986;11.618;2023-05-14T05:14:50;8.65;;;5.60;;
39924;SDS011;25592;49.986;11.618;2023-05-14T05:17:35;8.65;;;5.00;;
39924;SDS011;25592;49.986;11.618;2023-05-14T05:20:20;8.55;;;4.35;;
39924;SDS011;25592;49.986;11.618;2023-05-14T05:23:07;7.25;;;4.78;;
39924;SDS011;25592;49.986;11.618;2023-05-14T05:25:52;7.50;;;5.25;;
39924;SDS011;25592;49.986;11.618;2023-05-14T05:28:38;9.00;;;5.30;;
39924;SDS011;25592;49.986;11.618;2023-05-14T05:31:23;8.68;;;5.32;;
39924;SDS011;25592;49.986;11.618;2023-05-14T05:34:08;8.43;;;4.93;;
39924;SDS011;25592;49.986;11.618;2023-05-14T05:36:54;8.55;;;5.75;;
39924;SDS011;25592;49.986;11.618;2023-05-14T05:39:39;6.97;;;4.38;;
39924;SDS011;25592;49.986;11.618;2023-05-14T05:42:25;7.35;;;5.00;;
39924;SDS011;25592;49.986;11.618;2023-05-14T05:45:10;9.15;;;5.20;;
39924;SDS011;25592;49.986;11.618;2023-05-14T05:47:56;9.23;;;5.55;;
39924;SDS011;25592;49.986;11.618;2023-05-14T05:50:41;6.35;;;4.13;;
39924;SDS011;25592;49.986;11.618;2023-05-14T05:53:28;8.02;;;5.22;;
39924;SDS011;25592;49.986;11.618;2023-05-14T05:56:13;9.02;;;4.93;;
39924;SDS011;25592;49.986;11.618;2023-05-14T05:58:59;7.10;;;5.00;;
39924;SDS011;25592;49.986;11.618;2023-05-14T06:01:44;8.05;;;4.63;;
39924;SDS011;25592;49.986;11.618;2023-05-14T06:04:29;10.52;;;5.00;;
39924;SDS011;25592;49.986;11.618;2023-05-14T06:07:15;8.38;;;5.05;;
39924;SDS011;25592;49.986;11.618;2023-05-14T06:10:00;9.48;;;4.82;;
39924;SDS011;25592;49.986;11.618;2023-05-14T06:12:46;8.18;;;4.72;;
39924;SDS011;25592;49.986;11.618;2023-05-14T06:15:32;11.38;;;5.03;;
39924;SDS011;25592;49.986;11.618;2023-05-14T06:18:17;22.08;;;10.52;;
39924;SDS011;25592;49.986;11.618;2023-05-14T06:21:03;15.73;;;8.27;;
39924;SDS011;25592;49.986;11.618;2023-05-14T06:23:48;13.35;;;6.65;;
39924;SDS011;25592;49.986;11.618;2023-05-14T06:26:34;10.98;;;6.30;;
39924;SDS011;25592;49.986;11.618;2023-05-14T06:29:19;7.80;;;5.05;;
39924;SDS011;25592;49.986;11.618;2023-05-14T06:32:05;7.78;;;4.82;;
39924;SDS011;25592;49.986;11.618;2023-05-14T06:34:51;7.93;;;4.95;;
39924;SDS011;25592;49.986;11.618;2023-05-14T06:37:36;8.30;;;5.15;;
39924;SDS011;25592;49.986;11.618;2023-05-14T06:40:21;7.03;;;4.45;;
39924;SDS011;25592;49.986;11.618;2023-05-14T06:43:07;8.48;;;5.43;;
39924;SDS011;25592;49.986;11.618;2023-05-14T06:45:53;7.78;;;4.80;;
39924;SDS011;25592;49.986;11.618;2023-05-14T06:48:38;8.40;;;5.32;;
39924;SDS011;25592;49.986;11.618;2023-05-14T06:51:24;7.13;;;4.65;;
39924;SDS011;25592;49.986;11.618;2023-05-14T06:54:09;7.75;;;5.40;;
39924;SDS011;25592;49.986;11.618;2023-05-14T06:56:55;6.72;;;4.22;;
39924;SDS011;25592;49.986;11.618;2023-05-14T06:59:41;8.18;;;4.70;;
39924;SDS011;25592;49.986;11.618;2023-05-14T07:02:26;8.25;;;4.85;;
39924;SDS011;25592;49.986;11.618;2023-05-14T07:05:11;7.38;;;5.22;;
39924;SDS011;25592;49.986;11.618;2023-05-14T07:07:57;7.65;;;4.93;;
39924;SDS011;25592;49.986;11.618;2023-05-14T07:10:42;8.80;;;4.43;;
39924;SDS011;25592;49.986;11.618;2023-05-14T07:13:28;7.32;;;4.35;;
39924;SDS011;25592;49.986;11.618;2023-05-14T07:16:13;8.40;;;4.10;;
39924;SDS011;25592;49.986;11.618;2023-05-14T07:18:59;7.35;;;4.68;;
39924;SDS011;25592;49.986;11.618;2023-05-14T07:21:44;8.20;;;4.70;;
39924;SDS011;25592;49.986;11.618;2023-05-14T07:24:29;8.32;;;4.90;;
39924;SDS011;25592;49.986;11.618;2023-05-14T07:27:15;7.05;;;4.63;;
39924;SDS011;25592;49.986;11.618;2023-05-14T07:30:03;6.65;;;4.30;;
39924;SDS011;25592;49.986;11.618;2023-05-14T07:32:48;6.38;;;4.00;;
39924;SDS011;25592;49.986;11.618;2023-05-14T07:35:34;6.35;;;4.07;;
39924;SDS011;25592;49.986;11.618;2023-05-14T07:38:20;8.15;;;3.75;;
39924;SDS011;25592;49.986;11.618;2023-05-14T07:41:05;6.55;;;4.15;;
39924;SDS011;25592;49.986;11.618;2023-05-14T07:43:51;7.90;;;4.35;;
39924;SDS011;25592;49.986;11.618;2023-05-14T07:46:37;5.55;;;3.72;;
39924;SDS011;25592;49.986;11.618;2023-05-14T07:49:22;6.10;;;3.60;;
39924;SDS011;25592;49.986;11.618;2023-05-14T07:52:09;7.88;;;4.32;;
39924;SDS011;25592;49.986;11.618;2023-05-14T07:54:54;6.88;;;4.20;;
39924;SDS011;25592;49.986;11.618;2023-05-14T07:57:39;7.72;;;4.15;;
39924;SDS011;25592;49.986;11.618;2023-05-14T08:00:25;8.35;;;4.40;;
39924;SDS011;25592;49.986;11.618;2023-05-14T08:03:11;7.18;;;4.10;;
39924;SDS011;25592;49.986;11.618;2023-05-14T08:05:57;6.85;;;4.07;;
39924;SDS011;25592;49.986;11.618;2023-05-14T08:08:42;7.43;;;4.60;;
39924;SDS011;25592;49.986;11.618;2023-05-14T08:11:27;6.72;;;4.20;;
39924;SDS011;25592;49.986;11.618;2023-05-14T08:14:13;8.00;;;4.47;;
39924;SDS011;25592;49.986;11.618;2023-05-14T08:16:58;7.35;;;4.20;;
39924;SDS011;25592;49.986;11.618;2023-05-14T08:19:44;6.45;;;3.92;;
39924;SDS011;25592;49.986;11.618;2023-05-14T08:22:30;7.07;;;4.57;;
39924;SDS011;25592;49.986;11.618;2023-05-14T08:25:15;6.32;;;3.90;;
39924;SDS011;25592;49.986;11.618;2023-05-14T08:28:01;6.85;;;4.10;;
39924;SDS011;25592;49.986;11.618;2023-05-14T08:30:46;6.07;;;3.70;;
39924;SDS011;25592;49.986;11.618;2023-05-14T08:33:32;6.55;;;4.05;;
39924;SDS011;25592;49.986;11.618;2023-05-14T08:36:17;6.55;;;4.47;;
39924;SDS011;25592;49.986;11.618;2023-05-14T08:39:03;6.20;;;3.80;;
39924;SDS011;25592;49.986;11.618;2023-05-14T08:41:48;7.00;;;4.35;;
39924;SDS011;25592;49.986;11.618;2023-05-14T08:44:52;6.93;;;4.47;;
39924;SDS011;25592;49.986;11.618;2023-05-14T08:47:42;7.75;;;3.70;;
39924;SDS011;25592;49.986;11.618;2023-05-14T08:50:34;5.28;;;3.58;;
39924;SDS011;25592;49.986;11.618;2023-05-14T08:53:20;5.45;;;3.42;;
39924;SDS011;25592;49.986;11.618;2023-05-14T08:56:06;7.13;;;3.60;;
39924;SDS011;25592;49.986;11.618;2023-05-14T08:58:52;4.68;;;2.85;;
39924;SDS011;25592;49.986;11.618;2023-05-14T09:01:40;6.78;;;3.50;;
39924;SDS011;25592;49.986;11.618;2023-05-14T09:04:30;8.63;;;4.22;;
39924;SDS011;25592;49.986;11.618;2023-05-14T09:07:16;6.43;;;3.88;;
39924;SDS011;25592;49.986;11.618;2023-05-14T09:10:02;5.38;;;3.42;;
39924;SDS011;25592;49.986;11.618;2023-05-14T09:12:47;5.68;;;3.00;;
39924;SDS011;25592;49.986;11.618;2023-05-14T09:15:33;5.07;;;3.15;;
39924;SDS011;25592;49.986;11.618;2023-05-14T09:18:20;4.90;;;3.40;;
39924;SDS011;25592;49.986;11.618;2023-05-14T09:21:06;5.47;;;3.33;;
39924;SDS011;25592;49.986;11.618;2023-05-14T09:23:52;6.40;;;3.33;;
39924;SDS011;25592;49.986;11.618;2023-05-14T09:26:40;5.57;;;3.20;;
39924;SDS011;25592;49.986;11.618;2023-05-14T09:29:27;5.57;;;3.22;;
39924;SDS011;25592;49.986;11.618;2023-05-14T09:32:13;8.10;;;5.55;;
39924;SDS011;25592;49.986;11.618;2023-05-14T09:34:58;6.18;;;3.63;;
39924;SDS011;25592;49.986;11.618;2023-05-14T09:37:53;5.95;;;3.63;;
39924;SDS011;25592;49.986;11.618;2023-05-14T09:40:39;7.30;;;3.38;;
39924;SDS011;25592;49.986;11.618;2023-05-14T09:43:24;7.75;;;3.80;;
39924;SDS011;25592;49.986;11.618;2023-05-14T09:46:10;4.60;;;3.00;;
39924;SDS011;25592;49.986;11.618;2023-05-14T09:48:55;4.90;;;3.10;;
39924;SDS011;25592;49.986;11.618;2023-05-14T09:51:41;5.10;;;3.33;;
39924;SDS011;25592;49.986;11.618;2023-05-14T09:54:26;7.82;;;3.33;;
39924;SDS011;25592;49.986;11.618;2023-05-14T09:57:12;6.10;;;3.38;;
39924;SDS011;25592;49.986;11.618;2023-05-14T09:59:57;7.68;;;3.60;;
39924;SDS011;25592;49.986;11.618;2023-05-14T10:02:43;5.22;;;3.40;;
39924;SDS011;25592;49.986;11.618;2023-05-14T10:05:32;6.55;;;3.63;;
39924;SDS011;25592;49.986;11.618;2023-05-14T10:08:23;5.95;;;3.72;;
39924;SDS011;25592;49.986;11.618;2023-05-14T10:11:13;5.43;;;3.53;;
39924;SDS011;25592;49.986;11.618;2023-05-14T10:14:08;7.13;;;3.95;;
39924;SDS011;25592;49.986;11.618;2023-05-14T10:17:02;4.95;;;3.20;;
39924;SDS011;25592;49.986;11.618;2023-05-14T10:19:49;5.40;;;3.08;;
39924;SDS011;25592;49.986;11.618;2023-05-14T10:22:38;5.30;;;3.60;;
39924;SDS011;25592;49.986;11.618;2023-05-14T10:25:23;5.50;;;3.00;;
39924;SDS011;25592;49.986;11.618;2023-05-14T10:28:09;6.20;;;3.38;;
39924;SDS011;25592;49.986;11.618;2023-05-14T10:30:55;5.50;;;3.40;;
39924;SDS011;25592;49.986;11.618;2023-05-14T10:33:47;5.75;;;3.22;;
39924;SDS011;25592;49.986;11.618;2023-05-14T10:36:34;5.28;;;2.88;;
39924;SDS011;25592;49.986;11.618;2023-05-14T10:39:20;4.70;;;3.10;;
39924;SDS011;25592;49.986;11.618;2023-05-14T10:42:05;5.38;;;3.33;;
39924;SDS011;25592;49.986;11.618;2023-05-14T10:44:57;4.88;;;3.08;;
39924;SDS011;25592;49.986;11.618;2023-05-14T10:47:52;5.75;;;3.22;;
39924;SDS011;25592;49.986;11.618;2023-05-14T10:50:38;5.00;;;3.25;;
39924;SDS011;25592;49.986;11.618;2023-05-14T10:53:33;6.10;;;3.33;;
39924;SDS011;25592;49.986;11.618;2023-05-14T10:56:22;4.80;;;3.30;;
39924;SDS011;25592;49.986;11.618;2023-05-14T10:59:08;4.50;;;2.75;;
39924;SDS011;25592;49.986;11.618;2023-05-14T11:01:58;4.90;;;2.92;;
39924;SDS011;25592;49.986;11.618;2023-05-14T11:04:49;5.93;;;2.90;;
39924;SDS011;25592;49.986;11.618;2023-05-14T11:07:43;3.72;;;2.47;;
39924;SDS011;25592;49.986;11.618;2023-05-14T11:10:29;5.15;;;2.80;;
39924;SDS011;25592;49.986;11.618;2023-05-14T11:13:15;7.03;;;3.28;;
39924;SDS011;25592;49.986;11.618;2023-05-14T11:16:03;5.35;;;2.63;;
39924;SDS011;25592;49.986;11.618;2023-05-14T11:19:05;7.18;;;2.88;;
39924;SDS011;25592;49.986;11.618;2023-05-14T11:21:50;4.10;;;2.60;;
39924;SDS011;25592;49.986;11.618;2023-05-14T11:24:35;4.07;;;2.30;;
39924;SDS011;25592;49.986;11.618;2023-05-14T11:27:21;6.50;;;3.03;;
39924;SDS011;25592;49.986;11.618;2023-05-14T11:30:14;4.45;;;2.58;;
39924;SDS011;25592;49.986;11.618;2023-05-14T11:33:01;4.20;;;2.70;;
39924;SDS011;25592;49.986;11.618;2023-05-14T11:35:47;6.82;;;2.85;;
39924;SDS011;25592;49.986;11.618;2023-05-14T11:38:32;3.85;;;2.47;;
39924;SDS011;25592;49.986;11.618;2023-05-14T11:41:17;3.85;;;2.42;;
39924;SDS011;25592;49.986;11.618;2023-05-14T11:44:05;5.97;;;2.30;;
39924;SDS011;25592;49.986;11.618;2023-05-14T11:46:56;6.40;;;3.10;;
39924;SDS011;25592;49.986;11.618;2023-05-14T11:49:42;5.25;;;2.78;;
39924;SDS011;25592;49.986;11.618;2023-05-14T11:52:27;4.68;;;2.72;;
39924;SDS011;25592;49.986;11.618;2023-05-14T11:55:13;4.53;;;2.40;;
39924;SDS011;25592;49.986;11.618;2023-05-14T11:57:59;5.03;;;2.85;;
39924;SDS011;25592;49.986;11.618;2023-05-14T12:00:44;4.75;;;2.47;;
39924;SDS011;25592;49.986;11.618;2023-05-14T12:03:31;4.20;;;3.00;;
39924;SDS011;25592;49.986;11.618;2023-05-14T12:06:17;4.32;;;2.90;;
39924;SDS011;25592;49.986;11.618;2023-05-14T12:09:03;4.53;;;2.67;;
39924;SDS011;25592;49.986;11.618;2023-05-14T12:11:49;5.22;;;2.85;;
39924;SDS011;25592;49.986;11.618;2023-05-14T12:14:37;4.93;;;2.80;;
39924;SDS011;25592;49.986;11.618;2023-05-14T12:17:26;4.40;;;2.80;;
39924;SDS011;25592;49.986;11.618;2023-05-14T12:20:12;3.95;;;2.80;;
39924;SDS011;25592;49.986;11.618;2023-05-14T12:22:57;4.93;;;3.00;;
39924;SDS011;25592;49.986;11.618;2023-05-14T12:25:49;4.10;;;2.72;;
39924;SDS011;25592;49.986;11.618;2023-05-14T12:28:37;5.60;;;3.08;;
39924;SDS011;25592;49.986;11.618;2023-05-14T12:31:30;5.85;;;3.75;;
39924;SDS011;25592;49.986;11.618;2023-05-14T12:34:16;5.10;;;3.40;;
39924;SDS011;25592;49.986;11.618;2023-05-14T12:37:01;4.32;;;2.78;;
39924;SDS011;25592;49.986;11.618;2023-05-14T12:39:48;4.05;;;2.75;;
39924;SDS011;25592;49.986;11.618;2023-05-14T12:42:33;6.78;;;3.45;;
39924;SDS011;25592;49.986;11.618;2023-05-14T12:45:19;5.47;;;3.08;;
39924;SDS011;25592;49.986;11.618;2023-05-14T12:48:05;4.40;;;2.70;;
39924;SDS011;25592;49.986;11.618;2023-05-14T12:50:50;5.13;;;2.72;;
39924;SDS011;25592;49.986;11.618;2023-05-14T12:53:36;5.35;;;3.28;;
39924;SDS011;25592;49.986;11.618;2023-05-14T12:56:21;6.30;;;3.67;;
39924;SDS011;25592;49.986;11.618;2023-05-14T12:59:11;4.78;;;2.88;;
39924;SDS011;25592;49.986;11.618;2023-05-14T13:01:56;3.65;;;2.20;;
39924;SDS011;25592;49.986;11.618;2023-05-14T13:04:42;4.38;;;2.65;;
39924;SDS011;25592;49.986;11.618;2023-05-14T13:07:27;4.30;;;2.55;;
39924;SDS011;25592;49.986;11.618;2023-05-14T13:10:13;4.43;;;2.75;;
39924;SDS011;25592;49.986;11.618;2023-05-14T13:13:01;4.93;;;3.28;;
39924;SDS011;25592;49.986;11.618;2023-05-14T13:15:46;6.50;;;2.75;;
39924;SDS011;25592;49.986;11.618;2023-05-14T13:18:32;5.55;;;2.75;;
39924;SDS011;25592;49.986;11.618;2023-05-14T13:21:17;5.70;;;3.03;;
39924;SDS011;25592;49.986;11.618;2023-05-14T13:24:02;5.53;;;2.85;;
39924;SDS011;25592;49.986;11.618;2023-05-14T13:26:48;5.28;;;3.50;;
39924;SDS011;25592;49.986;11.618;2023-05-14T13:29:33;4.68;;;2.70;;
39924;SDS011;25592;49.986;11.618;2023-05-14T13:32:19;4.93;;;3.30;;
39924;SDS011;25592;49.986;11.618;2023-05-14T13:35:04;4.45;;;2.92;;
39924;SDS011;25592;49.986;11.618;2023-05-14T13:37:51;5.15;;;2.97;;
39924;SDS011;25592;49.986;11.618;2023-05-14T13:40:36;5.13;;;2.72;;
39924;SDS011;25592;49.986;11.618;2023-05-14T13:43:22;5.03;;;2.90;;
39924;SDS011;25592;49.986;11.618;2023-05-14T13:46:07;6.05;;;3.05;;
39924;SDS011;25592;49.986;11.618;2023-05-14T13:48:53;4.28;;;3.08;;
39924;SDS011;25592;49.986;11.618;2023-05-14T13:51:38;5.40;;;3.33;;
39924;SDS011;25592;49.986;11.618;2023-05-14T13:54:23;5.00;;;3.00;;
39924;SDS011;25592;49.986;11.618;2023-05-14T13:57:09;6.25;;;3.80;;
39924;SDS011;25592;49.986;11.618;2023-05-14T13:59:54;5.50;;;2.97;;
39924;SDS011;25592;49.986;11.618;2023-05-14T14:02:40;7.47;;;2.80;;
39924;SDS011;25592;49.986;11.618;2023-05-14T14:05:25;4.05;;;2.58;;
39924;SDS011;25592;49.986;11.618;2023-05-14T14:08:12;3.67;;;2.40;;
39924;SDS011;25592;49.986;11.618;2023-05-14T14:11:06;4.97;;;2.58;;
39924;SDS011;25592;49.986;11.618;2023-05-14T14:13:52;3.17;;;2.08;;
39924;SDS011;25592;49.986;11.618;2023-05-14T14:16:38;4.38;;;2.20;;
39924;SDS011;25592;49.986;11.618;2023-05-14T14:19:23;3.60;;;2.20;;
39924;SDS011;25592;49.986;11.618;2023-05-14T14:22:08;4.25;;;2.35;;
39924;SDS011;25592;49.986;11.618;2023-05-14T14:24:54;2.67;;;1.73;;
39924;SDS011;25592;49.986;11.618;2023-05-14T14:27:42;4.20;;;2.55;;
39924;SDS011;25592;49.986;11.618;2023-05-14T14:30:31;3.50;;;2.10;;
39924;SDS011;25592;49.986;11.618;2023-05-14T14:33:16;4.95;;;1.98;;
39924;SDS011;25592;49.986;11.618;2023-05-14T14:36:02;3.78;;;2.08;;
39924;SDS011;25592;49.986;11.618;2023-05-14T14:38:47;3.80;;;2.03;;
39924;SDS011;25592;49.986;11.618;2023-05-14T14:41:32;2.75;;;1.95;;
39924;SDS011;25592;49.986;11.618;2023-05-14T14:44:18;5.05;;;2.28;;
39924;SDS011;25592;49.986;11.618;2023-05-14T14:47:03;4.13;;;2.50;;
39924;SDS011;25592;49.986;11.618;2023-05-14T14:49:49;3.60;;;2.35;;
39924;SDS011;25592;49.986;11.618;2023-05-14T14:52:35;5.53;;;2.30;;
39924;SDS011;25592;49.986;11.618;2023-05-14T14:55:20;3.63;;;2.28;;
39924;SDS011;25592;49.986;11.618;2023-05-14T14:58:06;5.45;;;2.67;;
39924;SDS011;25592;49.986;11.618;2023-05-14T15:00:52;9.50;;;2.30;;
39924;SDS011;25592;49.986;11.618;2023-05-14T15:03:39;3.78;;;2.60;;
39924;SDS011;25592;49.986;11.618;2023-05-14T15:06:24;5.60;;;2.95;;
39924;SDS011;25592;49.986;11.618;2023-05-14T15:09:10;5.25;;;2.47;;
39924;SDS011;25592;49.986;11.618;2023-05-14T15:11:55;3.78;;;2.30;;
39924;SDS011;25592;49.986;11.618;2023-05-14T15:14:41;5.95;;;2.40;;
39924;SDS011;25592;49.986;11.618;2023-05-14T15:17:26;3.92;;;2.50;;
39924;SDS011;25592;49.986;11.618;2023-05-14T15:20:12;5.43;;;2.40;;
39924;SDS011;25592;49.986;11.618;2023-05-14T15:22:57;3.33;;;2.13;;
39924;SDS011;25592;49.986;11.618;2023-05-14T15:25:42;4.63;;;2.53;;
39924;SDS011;25592;49.986;11.618;2023-05-14T15:28:28;4.38;;;2.95;;
39924;SDS011;25592;49.986;11.618;2023-05-14T15:31:13;5.28;;;2.88;;
39924;SDS011;25592;49.986;11.618;2023-05-14T15:33:59;3.97;;;2.63;;
39924;SDS011;25592;49.986;11.618;2023-05-14T15:36:44;3.45;;;2.42;;
39924;SDS011;25592;49.986;11.618;2023-05-14T15:39:29;3.97;;;2.72;;
39924;SDS011;25592;49.986;11.618;2023-05-14T15:42:15;4.50;;;2.83;;
39924;SDS011;25592;49.986;11.618;2023-05-14T15:45:00;4.57;;;3.10;;
39924;SDS011;25592;49.986;11.618;2023-05-14T15:47:46;4.00;;;2.72;;
39924;SDS011;25592;49.986;11.618;2023-05-14T15:50:31;5.38;;;3.30;;
39924;SDS011;25592;49.986;11.618;2023-05-14T15:53:16;5.30;;;2.70;;
39924;SDS011;25592;49.986;11.618;2023-05-14T15:56:02;3.60;;;2.53;;
39924;SDS011;25592;49.986;11.618;2023-05-14T15:58:48;3.80;;;2.38;;
39924;SDS011;25592;49.986;11.618;2023-05-14T16:01:33;4.63;;;2.50;;
39924;SDS011;25592;49.986;11.618;2023-05-14T16:04:18;4.85;;;2.53;;
39924;SDS011;25592;49.986;11.618;2023-05-14T16:07:05;3.42;;;2.30;;
39924;SDS011;25592;49.986;11.618;2023-05-14T16:09:53;3.83;;;2.95;;
39924;SDS011;25592;49.986;11.618;2023-05-14T16:12:39;3.95;;;2.20;;
39924;SDS011;25592;49.986;11.618;2023-05-14T16:15:24;4.53;;;2.45;;
39924;SDS011;25592;49.986;11.618;2023-05-14T16:18:10;5.00;;;2.92;;
39924;SDS011;25592;49.986;11.618;2023-05-14T16:20:55;4.68;;;2.70;;
39924;SDS011;25592;49.986;11.618;2023-05-14T16:23:41;4.32;;;2.70;;
39924;SDS011;25592;49.986;11.618;2023-05-14T16:26:26;4.95;;;2.90;;
39924;SDS011;25592;49.986;11.618;2023-05-14T16:29:12;4.18;;;2.72;;